sensor_id;sensor_type;location;lat;lon;timestamp;P1;durP1;ratioP1;P2;durP2;ratioP2
13891;SDS011;7016;48.172;8.058;2023-08-06T00:00:16;5.47;;;2.47;;
13891;SDS011;7016;48.172;8.058;2023-08-06T00:02:41;5.57;;;2.50;;
13891;SDS011;7016;48.172;8.058;2023-08-06T00:05:07;6.60;;;2.67;;
13891;SDS011;7016;48.172;8.058;2023-08-06T00:07:33;7.40;;;2.38;;
13891;SDS011;7016;48.172;8.058;2023-08-06T00:09:59;4.15;;;2.20;;
13891;SDS011;7016;48.172;8.058;2023-08-06T00:12:24;5.07;;;2.15;;
13891;SDS011;7016;48.172;8.058;2023-08-06T00:14:50;4.82;;;2.45;;
13891;SDS011;7016;48.172;8.058;2023-08-06T00:17:17;8.18;;;2.17;;
13891;SDS011;7016;48.172;8.058;2023-08-06T00:19:42;5.50;;;2.40;;
13891;SDS011;7016;48.172;8.058;2023-08-06T00:22:08;8.93;;;2.40;;
13891;SDS011;7016;48.172;8.058;2023-08-06T00:24:34;3.75;;;2.10;;
13891;SDS011;7016;48.172;8.058;2023-08-06T00:27:00;4.07;;;2.15;;
13891;SDS011;7016;48.172;8.058;2023-08-06T00:29:26;4.57;;;1.98;;
13891;SDS011;7016;48.172;8.058;2023-08-06T00:31:52;4.00;;;2.20;;
13891;SDS011;7016;48.172;8.058;2023-08-06T00:34:17;4.15;;;1.88;;
13891;SDS011;7016;48.172;8.058;2023-08-06T00:36:43;3.75;;;1.95;;
13891;SDS011;7016;48.172;8.058;2023-08-06T00:39:09;4.63;;;1.92;;
13891;SDS011;7016;48.172;8.058;2023-08-06T00:41:34;4.13;;;1.95;;
13891;SDS011;7016;48.172;8.058;2023-08-06T00:44:00;4.30;;;2.13;;
13891;SDS011;7016;48.172;8.058;2023-08-06T00:46:26;4.20;;;2.45;;
13891;SDS011;7016;48.172;8.058;2023-08-06T00:48:52;3.75;;;1.80;;
13891;SDS011;7016;48.172;8.058;2023-08-06T00:51:19;3.83;;;1.92;;
13891;SDS011;7016;48.172;8.058;2023-08-06T00:53:45;6.25;;;2.20;;
13891;SDS011;7016;48.172;8.058;2023-08-06T00:56:12;6.35;;;2.20;;
13891;SDS011;7016;48.172;8.058;2023-08-06T00:58:38;4.55;;;2.15;;
13891;SDS011;7016;48.172;8.058;2023-08-06T01:01:04;4.85;;;2.00;;
13891;SDS011;7016;48.172;8.058;2023-08-06T01:03:30;6.47;;;2.30;;
13891;SDS011;7016;48.172;8.058;2023-08-06T01:05:56;3.88;;;1.73;;
13891;SDS011;7016;48.172;8.058;2023-08-06T01:11:38;4.55;;;1.85;;
13891;SDS011;7016;48.172;8.058;2023-08-06T01:14:35;3.53;;;1.90;;
13891;SDS011;7016;48.172;8.058;2023-08-06T01:17:09;5.97;;;2.20;;
13891;SDS011;7016;48.172;8.058;2023-08-06T01:19:36;4.53;;;2.10;;
13891;SDS011;7016;48.172;8.058;2023-08-06T01:22:01;3.38;;;1.80;;
13891;SDS011;7016;48.172;8.058;2023-08-06T01:24:27;8.00;;;2.08;;
13891;SDS011;7016;48.172;8.058;2023-08-06T01:27:04;4.47;;;2.30;;
13891;SDS011;7016;48.172;8.058;2023-08-06T01:29:41;4.40;;;2.17;;
13891;SDS011;7016;48.172;8.058;2023-08-06T01:32:12;4.28;;;2.10;;
13891;SDS011;7016;48.172;8.058;2023-08-06T01:34:41;4.43;;;2.42;;
13891;SDS011;7016;48.172;8.058;2023-08-06T01:37:10;5.90;;;2.20;;
13891;SDS011;7016;48.172;8.058;2023-08-06T01:39:37;3.85;;;2.17;;
13891;SDS011;7016;48.172;8.058;2023-08-06T01:42:04;3.75;;;1.90;;
13891;SDS011;7016;48.172;8.058;2023-08-06T01:44:32;3.08;;;1.90;;
13891;SDS011;7016;48.172;8.058;2023-08-06T01:46:58;3.88;;;2.10;;
13891;SDS011;7016;48.172;8.058;2023-08-06T01:49:24;4.40;;;2.15;;
13891;SDS011;7016;48.172;8.058;2023-08-06T01:51:49;7.20;;;2.05;;
13891;SDS011;7016;48.172;8.058;2023-08-06T01:54:15;8.27;;;2.08;;
13891;SDS011;7016;48.172;8.058;2023-08-06T01:56:41;4.05;;;2.05;;
13891;SDS011;7016;48.172;8.058;2023-08-06T01:59:06;5.00;;;2.25;;
13891;SDS011;7016;48.172;8.058;2023-08-06T02:01:32;4.38;;;2.25;;
13891;SDS011;7016;48.172;8.058;2023-08-06T02:03:58;4.93;;;2.20;;
13891;SDS011;7016;48.172;8.058;2023-08-06T02:06:23;6.90;;;2.00;;
13891;SDS011;7016;48.172;8.058;2023-08-06T02:08:49;8.18;;;2.35;;
13891;SDS011;7016;48.172;8.058;2023-08-06T02:11:15;6.57;;;2.33;;
13891;SDS011;7016;48.172;8.058;2023-08-06T02:13:41;6.82;;;2.80;;
13891;SDS011;7016;48.172;8.058;2023-08-06T02:16:07;4.55;;;2.45;;
13891;SDS011;7016;48.172;8.058;2023-08-06T02:18:33;6.85;;;2.30;;
13891;SDS011;7016;48.172;8.058;2023-08-06T02:20:59;4.72;;;1.95;;
13891;SDS011;7016;48.172;8.058;2023-08-06T02:23:25;5.97;;;2.42;;
13891;SDS011;7016;48.172;8.058;2023-08-06T02:26:01;6.45;;;2.70;;
13891;SDS011;7016;48.172;8.058;2023-08-06T02:28:31;5.20;;;2.30;;
13891;SDS011;7016;48.172;8.058;2023-08-06T02:30:57;5.82;;;2.38;;
13891;SDS011;7016;48.172;8.058;2023-08-06T02:33:23;5.80;;;2.50;;
13891;SDS011;7016;48.172;8.058;2023-08-06T02:35:49;6.82;;;2.28;;
13891;SDS011;7016;48.172;8.058;2023-08-06T02:38:14;6.45;;;2.20;;
13891;SDS011;7016;48.172;8.058;2023-08-06T02:40:44;6.28;;;2.08;;
13891;SDS011;7016;48.172;8.058;2023-08-06T02:43:13;3.17;;;2.05;;
13891;SDS011;7016;48.172;8.058;2023-08-06T02:45:39;7.80;;;2.20;;
13891;SDS011;7016;48.172;8.058;2023-08-06T02:48:05;3.08;;;1.70;;
13891;SDS011;7016;48.172;8.058;2023-08-06T02:50:31;4.50;;;1.70;;
13891;SDS011;7016;48.172;8.058;2023-08-06T02:53:02;4.05;;;1.60;;
13891;SDS011;7016;48.172;8.058;2023-08-06T02:55:28;4.25;;;1.73;;
13891;SDS011;7016;48.172;8.058;2023-08-06T02:57:53;5.78;;;1.70;;
13891;SDS011;7016;48.172;8.058;2023-08-06T03:00:19;4.10;;;1.67;;
13891;SDS011;7016;48.172;8.058;2023-08-06T03:02:44;4.47;;;1.60;;
13891;SDS011;7016;48.172;8.058;2023-08-06T03:05:10;4.35;;;1.83;;
13891;SDS011;7016;48.172;8.058;2023-08-06T03:07:36;4.90;;;1.70;;
13891;SDS011;7016;48.172;8.058;2023-08-06T03:10:02;5.70;;;2.17;;
13891;SDS011;7016;48.172;8.058;2023-08-06T03:12:28;5.10;;;2.10;;
13891;SDS011;7016;48.172;8.058;2023-08-06T03:14:54;4.05;;;1.73;;
13891;SDS011;7016;48.172;8.058;2023-08-06T03:17:20;5.43;;;2.13;;
13891;SDS011;7016;48.172;8.058;2023-08-06T03:19:45;6.13;;;2.08;;
13891;SDS011;7016;48.172;8.058;2023-08-06T03:22:11;4.28;;;1.95;;
13891;SDS011;7016;48.172;8.058;2023-08-06T03:24:37;4.32;;;1.95;;
13891;SDS011;7016;48.172;8.058;2023-08-06T03:27:02;7.25;;;2.08;;
13891;SDS011;7016;48.172;8.058;2023-08-06T03:29:28;5.47;;;1.95;;
13891;SDS011;7016;48.172;8.058;2023-08-06T03:31:54;5.82;;;2.00;;
13891;SDS011;7016;48.172;8.058;2023-08-06T03:34:19;6.68;;;2.00;;
13891;SDS011;7016;48.172;8.058;2023-08-06T03:36:45;7.68;;;2.50;;
13891;SDS011;7016;48.172;8.058;2023-08-06T03:39:11;6.22;;;2.30;;
13891;SDS011;7016;48.172;8.058;2023-08-06T03:41:36;5.13;;;1.80;;
13891;SDS011;7016;48.172;8.058;2023-08-06T03:44:02;4.65;;;2.25;;
13891;SDS011;7016;48.172;8.058;2023-08-06T03:46:29;4.18;;;1.85;;
13891;SDS011;7016;48.172;8.058;2023-08-06T03:48:57;5.95;;;1.83;;
13891;SDS011;7016;48.172;8.058;2023-08-06T03:51:23;3.63;;;1.92;;
13891;SDS011;7016;48.172;8.058;2023-08-06T03:53:48;4.97;;;1.77;;
13891;SDS011;7016;48.172;8.058;2023-08-06T03:56:14;4.82;;;1.70;;
13891;SDS011;7016;48.172;8.058;2023-08-06T03:58:40;5.18;;;1.80;;
13891;SDS011;7016;48.172;8.058;2023-08-06T04:01:05;5.10;;;1.65;;
13891;SDS011;7016;48.172;8.058;2023-08-06T04:03:31;4.72;;;1.77;;
13891;SDS011;7016;48.172;8.058;2023-08-06T04:05:57;6.53;;;1.45;;
13891;SDS011;7016;48.172;8.058;2023-08-06T04:08:22;4.88;;;1.50;;
13891;SDS011;7016;48.172;8.058;2023-08-06T04:10:52;4.57;;;1.30;;
13891;SDS011;7016;48.172;8.058;2023-08-06T04:13:18;3.95;;;1.48;;
13891;SDS011;7016;48.172;8.058;2023-08-06T04:15:45;3.95;;;1.60;;
13891;SDS011;7016;48.172;8.058;2023-08-06T04:18:11;6.50;;;1.20;;
13891;SDS011;7016;48.172;8.058;2023-08-06T04:20:43;4.82;;;1.13;;
13891;SDS011;7016;48.172;8.058;2023-08-06T04:23:10;2.63;;;0.85;;
13891;SDS011;7016;48.172;8.058;2023-08-06T04:25:36;2.25;;;0.90;;
13891;SDS011;7016;48.172;8.058;2023-08-06T04:28:01;3.22;;;1.00;;
13891;SDS011;7016;48.172;8.058;2023-08-06T04:30:27;2.88;;;0.95;;
13891;SDS011;7016;48.172;8.058;2023-08-06T04:32:52;2.05;;;0.93;;
13891;SDS011;7016;48.172;8.058;2023-08-06T04:35:18;1.58;;;0.75;;
13891;SDS011;7016;48.172;8.058;2023-08-06T04:37:44;2.92;;;0.98;;
13891;SDS011;7016;48.172;8.058;2023-08-06T04:40:09;1.73;;;0.68;;
13891;SDS011;7016;48.172;8.058;2023-08-06T04:42:35;3.10;;;0.95;;
13891;SDS011;7016;48.172;8.058;2023-08-06T04:45:01;2.90;;;0.70;;
13891;SDS011;7016;48.172;8.058;2023-08-06T04:47:27;2.47;;;1.00;;
13891;SDS011;7016;48.172;8.058;2023-08-06T04:49:53;3.80;;;1.05;;
13891;SDS011;7016;48.172;8.058;2023-08-06T04:52:19;3.90;;;0.93;;
13891;SDS011;7016;48.172;8.058;2023-08-06T04:54:45;3.28;;;0.82;;
13891;SDS011;7016;48.172;8.058;2023-08-06T04:57:10;4.35;;;0.88;;
13891;SDS011;7016;48.172;8.058;2023-08-06T04:59:36;2.30;;;0.80;;
13891;SDS011;7016;48.172;8.058;2023-08-06T05:02:02;3.38;;;0.95;;
13891;SDS011;7016;48.172;8.058;2023-08-06T05:04:27;5.38;;;0.93;;
13891;SDS011;7016;48.172;8.058;2023-08-06T05:06:53;5.20;;;1.08;;
13891;SDS011;7016;48.172;8.058;2023-08-06T05:09:19;4.00;;;1.10;;
13891;SDS011;7016;48.172;8.058;2023-08-06T05:11:46;3.58;;;1.20;;
13891;SDS011;7016;48.172;8.058;2023-08-06T05:14:12;5.85;;;1.25;;
13891;SDS011;7016;48.172;8.058;2023-08-06T05:16:37;4.78;;;1.30;;
13891;SDS011;7016;48.172;8.058;2023-08-06T05:19:04;6.43;;;1.35;;
13891;SDS011;7016;48.172;8.058;2023-08-06T05:21:30;4.40;;;1.20;;
13891;SDS011;7016;48.172;8.058;2023-08-06T05:23:55;5.20;;;1.23;;
13891;SDS011;7016;48.172;8.058;2023-08-06T05:26:21;7.68;;;1.35;;
13891;SDS011;7016;48.172;8.058;2023-08-06T05:28:47;4.20;;;1.40;;
13891;SDS011;7016;48.172;8.058;2023-08-06T05:31:12;4.65;;;1.25;;
13891;SDS011;7016;48.172;8.058;2023-08-06T05:33:38;6.47;;;1.55;;
13891;SDS011;7016;48.172;8.058;2023-08-06T05:36:04;7.22;;;1.60;;
13891;SDS011;7016;48.172;8.058;2023-08-06T05:38:29;7.50;;;1.30;;
13891;SDS011;7016;48.172;8.058;2023-08-06T05:40:55;6.25;;;1.55;;
13891;SDS011;7016;48.172;8.058;2023-08-06T05:43:22;6.20;;;1.70;;
13891;SDS011;7016;48.172;8.058;2023-08-06T05:45:51;5.65;;;1.83;;
13891;SDS011;7016;48.172;8.058;2023-08-06T05:48:16;10.82;;;1.67;;
13891;SDS011;7016;48.172;8.058;2023-08-06T05:50:42;5.05;;;1.88;;
13891;SDS011;7016;48.172;8.058;2023-08-06T05:53:08;6.60;;;1.75;;
13891;SDS011;7016;48.172;8.058;2023-08-06T05:55:34;7.78;;;1.88;;
13891;SDS011;7016;48.172;8.058;2023-08-06T05:58:00;10.05;;;2.05;;
13891;SDS011;7016;48.172;8.058;2023-08-06T06:00:26;7.28;;;1.80;;
13891;SDS011;7016;48.172;8.058;2023-08-06T06:02:52;11.15;;;2.33;;
13891;SDS011;7016;48.172;8.058;2023-08-06T06:05:17;4.95;;;1.50;;
13891;SDS011;7016;48.172;8.058;2023-08-06T06:07:43;6.05;;;2.03;;
13891;SDS011;7016;48.172;8.058;2023-08-06T06:10:09;9.45;;;2.22;;
13891;SDS011;7016;48.172;8.058;2023-08-06T06:12:35;5.47;;;1.67;;
13891;SDS011;7016;48.172;8.058;2023-08-06T06:15:00;6.95;;;1.60;;
13891;SDS011;7016;48.172;8.058;2023-08-06T06:17:26;6.65;;;1.52;;
13891;SDS011;7016;48.172;8.058;2023-08-06T06:19:52;4.25;;;1.30;;
13891;SDS011;7016;48.172;8.058;2023-08-06T06:22:18;6.50;;;1.20;;
13891;SDS011;7016;48.172;8.058;2023-08-06T06:24:44;5.45;;;1.75;;
13891;SDS011;7016;48.172;8.058;2023-08-06T06:27:09;6.45;;;1.50;;
13891;SDS011;7016;48.172;8.058;2023-08-06T06:29:35;7.82;;;1.40;;
13891;SDS011;7016;48.172;8.058;2023-08-06T06:32:01;4.63;;;1.27;;
13891;SDS011;7016;48.172;8.058;2023-08-06T06:34:26;6.50;;;1.48;;
13891;SDS011;7016;48.172;8.058;2023-08-06T06:36:52;5.32;;;1.20;;
13891;SDS011;7016;48.172;8.058;2023-08-06T06:39:21;7.85;;;1.63;;
13891;SDS011;7016;48.172;8.058;2023-08-06T06:41:47;6.25;;;1.60;;
13891;SDS011;7016;48.172;8.058;2023-08-06T06:44:13;7.78;;;2.30;;
13891;SDS011;7016;48.172;8.058;2023-08-06T06:46:40;5.53;;;1.50;;
13891;SDS011;7016;48.172;8.058;2023-08-06T06:49:05;4.28;;;1.35;;
13891;SDS011;7016;48.172;8.058;2023-08-06T06:51:31;6.68;;;1.60;;
13891;SDS011;7016;48.172;8.058;2023-08-06T06:53:57;5.40;;;1.10;;
13891;SDS011;7016;48.172;8.058;2023-08-06T06:56:23;5.50;;;1.55;;
13891;SDS011;7016;48.172;8.058;2023-08-06T06:58:49;3.60;;;1.48;;
13891;SDS011;7016;48.172;8.058;2023-08-06T07:01:17;2.50;;;1.17;;
13891;SDS011;7016;48.172;8.058;2023-08-06T07:03:43;6.78;;;1.27;;
13891;SDS011;7016;48.172;8.058;2023-08-06T07:06:08;7.43;;;1.70;;
13891;SDS011;7016;48.172;8.058;2023-08-06T07:08:34;6.20;;;1.30;;
13891;SDS011;7016;48.172;8.058;2023-08-06T07:11:01;7.85;;;1.55;;
13891;SDS011;7016;48.172;8.058;2023-08-06T07:13:32;9.45;;;1.67;;
13891;SDS011;7016;48.172;8.058;2023-08-06T07:15:59;5.70;;;1.20;;
13891;SDS011;7016;48.172;8.058;2023-08-06T07:18:24;3.20;;;1.02;;
13891;SDS011;7016;48.172;8.058;2023-08-06T07:20:51;3.40;;;0.85;;
13891;SDS011;7016;48.172;8.058;2023-08-06T07:23:19;2.65;;;0.98;;
13891;SDS011;7016;48.172;8.058;2023-08-06T07:25:46;5.28;;;1.20;;
13891;SDS011;7016;48.172;8.058;2023-08-06T07:28:12;5.43;;;1.05;;
13891;SDS011;7016;48.172;8.058;2023-08-06T07:30:39;3.70;;;1.00;;
13891;SDS011;7016;48.172;8.058;2023-08-06T07:33:06;4.10;;;1.30;;
13891;SDS011;7016;48.172;8.058;2023-08-06T07:35:32;12.90;;;1.02;;
13891;SDS011;7016;48.172;8.058;2023-08-06T07:37:58;4.07;;;0.90;;
13891;SDS011;7016;48.172;8.058;2023-08-06T07:40:24;2.35;;;0.93;;
13891;SDS011;7016;48.172;8.058;2023-08-06T07:42:49;4.45;;;1.13;;
13891;SDS011;7016;48.172;8.058;2023-08-06T07:45:15;2.33;;;0.77;;
13891;SDS011;7016;48.172;8.058;2023-08-06T07:47:41;2.53;;;0.80;;
13891;SDS011;7016;48.172;8.058;2023-08-06T07:50:08;2.67;;;0.70;;
13891;SDS011;7016;48.172;8.058;2023-08-06T07:52:34;2.17;;;0.60;;
13891;SDS011;7016;48.172;8.058;2023-08-06T07:55:00;2.55;;;0.80;;
13891;SDS011;7016;48.172;8.058;2023-08-06T07:57:30;1.75;;;0.60;;
13891;SDS011;7016;48.172;8.058;2023-08-06T07:59:56;1.52;;;0.70;;
13891;SDS011;7016;48.172;8.058;2023-08-06T08:02:21;1.17;;;0.68;;
13891;SDS011;7016;48.172;8.058;2023-08-06T08:04:47;4.38;;;0.80;;
13891;SDS011;7016;48.172;8.058;2023-08-06T08:07:13;1.60;;;0.60;;
13891;SDS011;7016;48.172;8.058;2023-08-06T08:09:39;1.55;;;0.73;;
13891;SDS011;7016;48.172;8.058;2023-08-06T08:12:05;3.60;;;1.92;;
13891;SDS011;7016;48.172;8.058;2023-08-06T08:14:31;2.25;;;0.80;;
13891;SDS011;7016;48.172;8.058;2023-08-06T08:17:01;1.48;;;0.80;;
13891;SDS011;7016;48.172;8.058;2023-08-06T08:19:27;3.13;;;0.75;;
13891;SDS011;7016;48.172;8.058;2023-08-06T08:21:53;3.67;;;1.20;;
13891;SDS011;7016;48.172;8.058;2023-08-06T08:24:19;7.90;;;2.53;;
13891;SDS011;7016;48.172;8.058;2023-08-06T08:26:49;6.72;;;1.20;;
13891;SDS011;7016;48.172;8.058;2023-08-06T08:29:21;2.92;;;1.02;;
13891;SDS011;7016;48.172;8.058;2023-08-06T08:31:47;3.35;;;1.35;;
13891;SDS011;7016;48.172;8.058;2023-08-06T08:34:16;2.97;;;1.33;;
13891;SDS011;7016;48.172;8.058;2023-08-06T08:36:45;3.72;;;1.10;;
13891;SDS011;7016;48.172;8.058;2023-08-06T08:39:15;1.38;;;0.60;;
13891;SDS011;7016;48.172;8.058;2023-08-06T08:41:40;3.95;;;0.80;;
13891;SDS011;7016;48.172;8.058;2023-08-06T08:44:10;0.73;;;0.50;;
13891;SDS011;7016;48.172;8.058;2023-08-06T08:46:36;1.30;;;0.60;;
13891;SDS011;7016;48.172;8.058;2023-08-06T08:49:03;1.00;;;0.60;;
13891;SDS011;7016;48.172;8.058;2023-08-06T08:51:30;1.75;;;0.60;;
13891;SDS011;7016;48.172;8.058;2023-08-06T08:53:56;0.50;;;0.25;;
13891;SDS011;7016;48.172;8.058;2023-08-06T08:56:22;2.97;;;0.90;;
13891;SDS011;7016;48.172;8.058;2023-08-06T08:58:49;1.10;;;0.68;;
13891;SDS011;7016;48.172;8.058;2023-08-06T09:01:15;1.58;;;0.70;;
13891;SDS011;7016;48.172;8.058;2023-08-06T09:03:42;1.10;;;0.52;;
13891;SDS011;7016;48.172;8.058;2023-08-06T09:06:09;1.80;;;0.50;;
13891;SDS011;7016;48.172;8.058;2023-08-06T09:08:37;0.85;;;0.55;;
13891;SDS011;7016;48.172;8.058;2023-08-06T09:11:09;1.83;;;0.80;;
13891;SDS011;7016;48.172;8.058;2023-08-06T09:13:36;0.85;;;0.47;;
13891;SDS011;7016;48.172;8.058;2023-08-06T09:16:02;2.13;;;0.50;;
13891;SDS011;7016;48.172;8.058;2023-08-06T09:18:31;1.73;;;0.70;;
13891;SDS011;7016;48.172;8.058;2023-08-06T09:20:57;1.95;;;0.63;;
13891;SDS011;7016;48.172;8.058;2023-08-06T09:23:29;2.38;;;0.50;;
13891;SDS011;7016;48.172;8.058;2023-08-06T09:25:57;2.03;;;0.55;;
13891;SDS011;7016;48.172;8.058;2023-08-06T09:28:23;1.23;;;0.70;;
13891;SDS011;7016;48.172;8.058;2023-08-06T09:30:49;1.02;;;0.50;;
13891;SDS011;7016;48.172;8.058;2023-08-06T09:33:18;1.20;;;0.60;;
13891;SDS011;7016;48.172;8.058;2023-08-06T09:35:45;0.98;;;0.45;;
13891;SDS011;7016;48.172;8.058;2023-08-06T09:38:12;1.67;;;0.70;;
13891;SDS011;7016;48.172;8.058;2023-08-06T09:40:39;4.00;;;0.68;;
13891;SDS011;7016;48.172;8.058;2023-08-06T09:43:06;3.10;;;0.70;;
13891;SDS011;7016;48.172;8.058;2023-08-06T09:45:36;2.08;;;0.70;;
13891;SDS011;7016;48.172;8.058;2023-08-06T09:48:06;1.85;;;0.70;;
13891;SDS011;7016;48.172;8.058;2023-08-06T09:50:34;1.85;;;0.65;;
13891;SDS011;7016;48.172;8.058;2023-08-06T09:53:02;1.02;;;0.80;;
13891;SDS011;7016;48.172;8.058;2023-08-06T09:55:32;1.42;;;0.60;;
13891;SDS011;7016;48.172;8.058;2023-08-06T09:57:58;2.03;;;0.70;;
13891;SDS011;7016;48.172;8.058;2023-08-06T10:00:24;1.52;;;0.55;;
13891;SDS011;7016;48.172;8.058;2023-08-06T10:02:51;1.15;;;0.60;;
13891;SDS011;7016;48.172;8.058;2023-08-06T10:05:21;0.80;;;0.40;;
13891;SDS011;7016;48.172;8.058;2023-08-06T10:07:47;1.10;;;0.50;;
13891;SDS011;7016;48.172;8.058;2023-08-06T10:10:15;1.13;;;0.50;;
13891;SDS011;7016;48.172;8.058;2023-08-06T10:12:45;1.48;;;0.68;;
13891;SDS011;7016;48.172;8.058;2023-08-06T10:15:15;0.85;;;0.50;;
13891;SDS011;7016;48.172;8.058;2023-08-06T10:17:45;1.77;;;0.70;;
13891;SDS011;7016;48.172;8.058;2023-08-06T10:20:13;1.33;;;0.82;;
13891;SDS011;7016;48.172;8.058;2023-08-06T10:22:43;0.90;;;0.47;;
13891;SDS011;7016;48.172;8.058;2023-08-06T10:25:10;1.27;;;0.60;;
13891;SDS011;7016;48.172;8.058;2023-08-06T10:27:54;1.58;;;0.60;;
13891;SDS011;7016;48.172;8.058;2023-08-06T10:32:54;1.97;;;1.27;;
13891;SDS011;7016;48.172;8.058;2023-08-06T10:38:26;2.17;;;0.55;;
13891;SDS011;7016;48.172;8.058;2023-08-06T10:41:02;3.17;;;0.70;;
13891;SDS011;7016;48.172;8.058;2023-08-06T10:45:59;1.77;;;0.80;;
13891;SDS011;7016;48.172;8.058;2023-08-06T10:48:36;3.33;;;0.85;;
13891;SDS011;7016;48.172;8.058;2023-08-06T10:51:10;2.00;;;0.80;;
13891;SDS011;7016;48.172;8.058;2023-08-06T10:53:37;11.93;;;0.80;;
13891;SDS011;7016;48.172;8.058;2023-08-06T10:56:13;1.00;;;0.50;;
13891;SDS011;7016;48.172;8.058;2023-08-06T10:58:39;0.93;;;0.40;;
13891;SDS011;7016;48.172;8.058;2023-08-06T11:01:05;1.00;;;0.68;;
13891;SDS011;7016;48.172;8.058;2023-08-06T11:03:31;1.42;;;0.63;;
13891;SDS011;7016;48.172;8.058;2023-08-06T11:05:59;1.98;;;0.55;;
13891;SDS011;7016;48.172;8.058;2023-08-06T11:10:51;2.90;;;0.68;;
13891;SDS011;7016;48.172;8.058;2023-08-06T11:13:17;0.93;;;0.50;;
13891;SDS011;7016;48.172;8.058;2023-08-06T11:15:45;2.17;;;0.63;;
13891;SDS011;7016;48.172;8.058;2023-08-06T11:18:11;1.80;;;0.80;;
13891;SDS011;7016;48.172;8.058;2023-08-06T11:20:37;0.80;;;0.60;;
13891;SDS011;7016;48.172;8.058;2023-08-06T11:23:04;3.33;;;0.88;;
13891;SDS011;7016;48.172;8.058;2023-08-06T11:25:30;1.67;;;0.70;;
13891;SDS011;7016;48.172;8.058;2023-08-06T11:27:55;2.15;;;0.70;;
13891;SDS011;7016;48.172;8.058;2023-08-06T11:30:21;1.30;;;0.70;;
13891;SDS011;7016;48.172;8.058;2023-08-06T11:32:47;3.00;;;0.80;;
13891;SDS011;7016;48.172;8.058;2023-08-06T11:35:14;2.17;;;0.82;;
13891;SDS011;7016;48.172;8.058;2023-08-06T11:37:44;1.38;;;0.90;;
13891;SDS011;7016;48.172;8.058;2023-08-06T11:40:11;3.22;;;0.73;;
13891;SDS011;7016;48.172;8.058;2023-08-06T11:42:37;1.25;;;0.50;;
13891;SDS011;7016;48.172;8.058;2023-08-06T11:45:03;1.05;;;0.77;;
13891;SDS011;7016;48.172;8.058;2023-08-06T11:47:30;1.17;;;0.60;;
13891;SDS011;7016;48.172;8.058;2023-08-06T11:49:56;1.38;;;0.60;;
13891;SDS011;7016;48.172;8.058;2023-08-06T11:52:23;1.98;;;0.75;;
13891;SDS011;7016;48.172;8.058;2023-08-06T11:55:05;3.03;;;1.05;;
13891;SDS011;7016;48.172;8.058;2023-08-06T11:57:36;1.50;;;0.80;;
13891;SDS011;7016;48.172;8.058;2023-08-06T12:00:05;1.88;;;1.00;;
13891;SDS011;7016;48.172;8.058;2023-08-06T12:02:32;2.92;;;1.48;;
13891;SDS011;7016;48.172;8.058;2023-08-06T12:07:32;1.95;;;0.95;;
13891;SDS011;7016;48.172;8.058;2023-08-06T12:10:01;2.38;;;1.00;;
13891;SDS011;7016;48.172;8.058;2023-08-06T12:12:27;1.33;;;0.70;;
13891;SDS011;7016;48.172;8.058;2023-08-06T12:14:53;0.80;;;0.70;;
13891;SDS011;7016;48.172;8.058;2023-08-06T12:17:20;1.50;;;0.90;;
13891;SDS011;7016;48.172;8.058;2023-08-06T12:19:46;2.28;;;0.93;;
13891;SDS011;7016;48.172;8.058;2023-08-06T12:22:12;2.67;;;1.00;;
13891;SDS011;7016;48.172;8.058;2023-08-06T12:24:40;2.97;;;1.20;;
13891;SDS011;7016;48.172;8.058;2023-08-06T12:27:22;1.40;;;0.77;;
13891;SDS011;7016;48.172;8.058;2023-08-06T12:29:57;1.30;;;0.73;;
13891;SDS011;7016;48.172;8.058;2023-08-06T12:32:22;0.95;;;0.60;;
13891;SDS011;7016;48.172;8.058;2023-08-06T12:34:48;1.60;;;0.65;;
13891;SDS011;7016;48.172;8.058;2023-08-06T12:37:14;3.75;;;0.70;;
13891;SDS011;7016;48.172;8.058;2023-08-06T12:39:40;2.33;;;0.90;;
13891;SDS011;7016;48.172;8.058;2023-08-06T12:42:05;1.95;;;1.02;;
13891;SDS011;7016;48.172;8.058;2023-08-06T12:44:32;2.00;;;1.00;;
13891;SDS011;7016;48.172;8.058;2023-08-06T12:46:58;2.67;;;1.00;;
13891;SDS011;7016;48.172;8.058;2023-08-06T12:49:24;2.35;;;0.52;;
13891;SDS011;7016;48.172;8.058;2023-08-06T12:51:51;1.00;;;0.77;;
13891;SDS011;7016;48.172;8.058;2023-08-06T12:54:18;4.50;;;0.70;;
13891;SDS011;7016;48.172;8.058;2023-08-06T12:56:45;0.98;;;0.68;;
13891;SDS011;7016;48.172;8.058;2023-08-06T12:59:11;1.58;;;0.70;;
13891;SDS011;7016;48.172;8.058;2023-08-06T13:01:39;1.60;;;0.60;;
13891;SDS011;7016;48.172;8.058;2023-08-06T13:04:04;1.92;;;0.60;;
13891;SDS011;7016;48.172;8.058;2023-08-06T13:06:30;1.08;;;0.63;;
13891;SDS011;7016;48.172;8.058;2023-08-06T13:09:01;1.50;;;0.73;;
13891;SDS011;7016;48.172;8.058;2023-08-06T13:11:27;1.50;;;0.80;;
13891;SDS011;7016;48.172;8.058;2023-08-06T13:13:53;1.95;;;0.60;;
13891;SDS011;7016;48.172;8.058;2023-08-06T13:16:18;0.88;;;0.57;;
13891;SDS011;7016;48.172;8.058;2023-08-06T13:18:44;1.33;;;0.70;;
13891;SDS011;7016;48.172;8.058;2023-08-06T13:21:10;2.75;;;0.70;;
13891;SDS011;7016;48.172;8.058;2023-08-06T13:23:35;1.13;;;0.60;;
13891;SDS011;7016;48.172;8.058;2023-08-06T13:26:01;5.38;;;0.93;;
13891;SDS011;7016;48.172;8.058;2023-08-06T13:28:27;1.15;;;0.65;;
13891;SDS011;7016;48.172;8.058;2023-08-06T13:30:52;0.65;;;0.50;;
13891;SDS011;7016;48.172;8.058;2023-08-06T13:33:18;1.23;;;0.50;;
13891;SDS011;7016;48.172;8.058;2023-08-06T13:35:44;2.33;;;0.77;;
13891;SDS011;7016;48.172;8.058;2023-08-06T13:38:09;1.10;;;0.60;;
13891;SDS011;7016;48.172;8.058;2023-08-06T13:40:35;1.63;;;0.90;;
13891;SDS011;7016;48.172;8.058;2023-08-06T13:43:01;2.88;;;0.80;;
13891;SDS011;7016;48.172;8.058;2023-08-06T13:45:27;3.72;;;0.90;;
13891;SDS011;7016;48.172;8.058;2023-08-06T13:47:55;1.38;;;0.85;;
13891;SDS011;7016;48.172;8.058;2023-08-06T13:50:21;3.40;;;0.95;;
13891;SDS011;7016;48.172;8.058;2023-08-06T13:52:47;3.13;;;1.55;;
13891;SDS011;7016;48.172;8.058;2023-08-06T13:55:13;2.17;;;0.90;;
13891;SDS011;7016;48.172;8.058;2023-08-06T13:57:38;1.83;;;0.93;;
13891;SDS011;7016;48.172;8.058;2023-08-06T14:00:04;1.85;;;1.10;;
13891;SDS011;7016;48.172;8.058;2023-08-06T14:02:30;1.42;;;0.90;;
13891;SDS011;7016;48.172;8.058;2023-08-06T14:04:56;2.67;;;1.00;;
13891;SDS011;7016;48.172;8.058;2023-08-06T14:07:22;3.58;;;1.17;;
13891;SDS011;7016;48.172;8.058;2023-08-06T14:09:47;2.17;;;1.25;;
13891;SDS011;7016;48.172;8.058;2023-08-06T14:12:14;2.35;;;1.10;;
13891;SDS011;7016;48.172;8.058;2023-08-06T14:14:40;3.35;;;1.35;;
13891;SDS011;7016;48.172;8.058;2023-08-06T14:17:05;1.20;;;1.00;;
13891;SDS011;7016;48.172;8.058;2023-08-06T14:19:31;2.22;;;0.90;;
13891;SDS011;7016;48.172;8.058;2023-08-06T14:21:57;2.10;;;0.98;;
13891;SDS011;7016;48.172;8.058;2023-08-06T14:24:23;5.40;;;1.67;;
13891;SDS011;7016;48.172;8.058;2023-08-06T14:26:48;4.95;;;1.52;;
13891;SDS011;7016;48.172;8.058;2023-08-06T14:29:14;4.65;;;1.30;;
13891;SDS011;7016;48.172;8.058;2023-08-06T14:31:40;2.58;;;1.15;;
13891;SDS011;7016;48.172;8.058;2023-08-06T14:34:06;3.95;;;2.05;;
13891;SDS011;7016;48.172;8.058;2023-08-06T14:36:32;3.42;;;1.30;;
13891;SDS011;7016;48.172;8.058;2023-08-06T14:38:59;2.92;;;1.25;;
13891;SDS011;7016;48.172;8.058;2023-08-06T14:41:25;2.95;;;1.60;;
13891;SDS011;7016;48.172;8.058;2023-08-06T14:43:50;2.92;;;1.33;;
13891;SDS011;7016;48.172;8.058;2023-08-06T14:46:16;2.35;;;1.35;;
13891;SDS011;7016;48.172;8.058;2023-08-06T14:48:42;4.13;;;1.63;;
13891;SDS011;7016;48.172;8.058;2023-08-06T14:51:08;2.03;;;1.42;;
13891;SDS011;7016;48.172;8.058;2023-08-06T14:53:34;4.25;;;1.88;;
13891;SDS011;7016;48.172;8.058;2023-08-06T14:56:00;7.70;;;3.08;;
13891;SDS011;7016;48.172;8.058;2023-08-06T14:58:25;2.67;;;1.65;;
13891;SDS011;7016;48.172;8.058;2023-08-06T15:00:52;3.00;;;1.50;;
13891;SDS011;7016;48.172;8.058;2023-08-06T15:03:17;2.70;;;1.25;;
13891;SDS011;7016;48.172;8.058;2023-08-06T15:05:44;4.90;;;1.60;;
13891;SDS011;7016;48.172;8.058;2023-08-06T15:08:12;4.00;;;1.50;;
13891;SDS011;7016;48.172;8.058;2023-08-06T15:10:37;2.35;;;1.10;;
13891;SDS011;7016;48.172;8.058;2023-08-06T15:13:03;5.00;;;1.23;;